createdAt,value
2019-04-03T00:00:31.244Z,99157.95
2019-04-03T00:05:36.379Z,99145.81
2019-04-03T00:10:41.656Z,99136.36
2019-04-03T00:15:46.694Z,99132.96
2019-04-03T00:20:51.785Z,99123.81
2019-04-03T00:25:57.126Z,99118.05
2019-04-03T00:31:02.116Z,99101.09
2019-04-03T00:36:07.432Z,99104.30
2019-04-03T00:41:12.430Z,99099.63
2019-04-03T00:46:18.652Z,99098.06
2019-04-03T00:51:23.644Z,99099.40
2019-04-03T00:56:29.740Z,99098.16
2019-04-03T01:01:34.873Z,99096.83
2019-04-03T01:06:42.894Z,99082.59
2019-04-03T01:11:48.004Z,99079.14
2019-04-03T01:16:52.959Z,99073.81
2019-04-03T01:21:57.948Z,99057.00
2019-04-03T01:27:02.887Z,99051.23
2019-04-03T01:32:09.244Z,99048.42
2019-04-03T01:37:14.265Z,99057.87
2019-04-03T01:42:21.493Z,99051.73
2019-04-03T01:47:27.771Z,99048.59
2019-04-03T01:52:34.114Z,99055.23
2019-04-03T01:57:39.116Z,99069.77
2019-04-03T02:02:44.099Z,99064.86
2019-04-03T02:07:49.016Z,99061.95
2019-04-03T02:12:58.229Z,99064.58
2019-04-03T02:18:03.464Z,99073.45
2019-04-03T02:23:08.436Z,99063.67
2019-04-03T02:28:13.405Z,99057.34
2019-04-03T02:33:28.615Z,99059.87
2019-04-03T02:38:35.947Z,99067.16
2019-04-03T02:43:41.151Z,99068.49
2019-04-03T02:48:46.174Z,99057.34
2019-04-03T02:53:51.342Z,99046.44
2019-04-03T02:58:56.441Z,99039.06
2019-04-03T03:04:02.020Z,99040.53
2019-04-03T03:09:07.151Z,99042.34
2019-04-03T03:14:13.186Z,99027.34
2019-04-03T03:19:18.659Z,99031.98
2019-04-03T03:24:23.638Z,99029.31
2019-04-03T03:29:31.712Z,99040.63
2019-04-03T03:34:54.106Z,99029.59
2019-04-03T03:39:47.480Z,99024.92
2019-04-03T03:44:58.774Z,99034.77
2019-04-03T03:50:05.700Z,99033.30
2019-04-03T03:55:12.456Z,99024.30
2019-04-03T04:00:22.391Z,99022.68
2019-04-03T04:05:28.392Z,99013.87
2019-04-03T04:10:38.061Z,98992.56
2019-04-03T04:15:43.898Z,99003.88
2019-04-03T04:20:49.088Z,98997.31
2019-04-03T04:25:54.534Z,98996.54
2019-04-03T04:31:00.224Z,99002.96
2019-04-03T04:36:05.250Z,99002.64
2019-04-03T04:41:10.672Z,98995.65
2019-04-03T04:46:15.680Z,98991.89
2019-04-03T04:51:21.725Z,98984.14
2019-04-03T04:56:27.176Z,98985.23
2019-04-03T05:01:32.318Z,99003.20
2019-04-03T05:06:37.513Z,99002.07
2019-04-03T05:11:42.497Z,99002.92
2019-04-03T05:16:47.454Z,98997.89
2019-04-03T05:21:53.111Z,99003.55
2019-04-03T05:26:58.572Z,99001.53
2019-04-03T05:32:03.570Z,98999.02
2019-04-03T05:37:11.409Z,99011.45
2019-04-03T05:42:15.757Z,98991.70
2019-04-03T05:47:20.723Z,99007.53
2019-04-03T05:52:26.187Z,98999.59
2019-04-03T05:57:33.057Z,99006.06
2019-04-03T06:02:40.909Z,98991.61
2019-04-03T06:07:47.034Z,98990.52
2019-04-03T06:12:53.645Z,98997.65
2019-04-03T06:18:01.102Z,98996.36
2019-04-03T06:23:06.359Z,99002.27
2019-04-03T06:28:13.330Z,98997.08
2019-04-03T06:33:18.308Z,98975.90
2019-04-03T06:38:24.523Z,99006.45
2019-04-03T06:43:30.790Z,98997.13
2019-04-03T06:48:36.512Z,98967.36
2019-04-03T06:53:43.138Z,98940.71
2019-04-03T06:58:48.193Z,98966.27
2019-04-03T07:03:53.166Z,98950.17
2019-04-03T07:08:58.249Z,98979.11
2019-04-03T07:14:03.733Z,98993.73
2019-04-03T07:19:09.057Z,98986.87
2019-04-03T07:24:14.405Z,98979.44
2019-04-03T07:29:19.649Z,98977.80
2019-04-03T07:34:24.677Z,98982.84
2019-04-03T07:39:29.742Z,98950.86
2019-04-03T07:44:35.005Z,98954.55
2019-04-03T07:49:40.491Z,98954.67
2019-04-03T07:54:45.878Z,98955.34
2019-04-03T07:59:50.901Z,98956.55
2019-04-03T08:04:59.463Z,98959.03
2019-04-03T08:10:02.651Z,98950.41
2019-04-03T08:15:09.245Z,98952.56
2019-04-03T08:20:14.856Z,98961.69
2019-04-03T08:25:20.222Z,98940.31
2019-04-03T08:30:25.368Z,98949.52
2019-04-03T08:35:30.873Z,98949.94
2019-04-03T08:40:37.979Z,98955.17
2019-04-03T08:45:43.108Z,98946.04
2019-04-03T08:50:54.235Z,98940.23
2019-04-03T08:56:02.534Z,98930.45
2019-04-03T09:01:10.432Z,98930.97
2019-04-03T09:06:14.716Z,98934.94
2019-04-03T09:11:19.875Z,98936.26
2019-04-03T09:16:24.910Z,98936.96
2019-04-03T09:21:30.055Z,98935.44
2019-04-03T09:26:38.113Z,98932.09
2019-04-03T09:31:43.358Z,98930.53
2019-04-03T09:36:48.342Z,98917.97
2019-04-03T09:41:53.425Z,98907.52
2019-04-03T09:46:58.440Z,98901.66
2019-04-03T09:52:03.700Z,98912.77
2019-04-03T09:57:08.679Z,98912.47
2019-04-03T10:02:13.752Z,98907.30
2019-04-03T10:07:18.809Z,98905.30
2019-04-03T10:12:23.898Z,98910.42
2019-04-03T10:17:29.236Z,98906.41
2019-04-03T10:22:34.315Z,98896.61
2019-04-03T10:27:42.544Z,98887.42
2019-04-03T10:32:46.049Z,98870.22
2019-04-03T10:37:52.055Z,98869.28
2019-04-03T10:42:59.855Z,98872.52
2019-04-03T10:48:04.350Z,98867.30
2019-04-03T10:53:09.345Z,98869.87
2019-04-03T10:58:15.226Z,98879.70
2019-04-03T11:03:20.691Z,98877.36
2019-04-03T11:08:25.959Z,98876.98
2019-04-03T11:13:32.249Z,98870.84
2019-04-03T11:18:38.485Z,98869.77
2019-04-03T11:23:45.580Z,98868.13
2019-04-03T11:28:51.487Z,98863.79
2019-04-03T11:33:58.427Z,98856.16
2019-04-03T11:39:12.336Z,98842.34
2019-04-03T11:44:12.007Z,98835.70
2019-04-03T11:49:19.361Z,98838.53
2019-04-03T11:54:24.425Z,98829.69
2019-04-03T11:59:29.479Z,98837.55
2019-04-03T12:04:34.873Z,98811.92
2019-04-03T12:09:40.065Z,98806.64
2019-04-03T12:14:48.450Z,98811.47
2019-04-03T12:19:54.555Z,98805.36
2019-04-03T12:25:00.003Z,98790.98
2019-04-03T12:30:06.668Z,98780.86
2019-04-03T12:35:11.796Z,98781.70
2019-04-03T12:40:17.225Z,98773.41
2019-04-03T12:45:22.724Z,98774.87
2019-04-03T12:50:29.035Z,98766.86
2019-04-03T12:55:34.159Z,98760.13
2019-04-03T13:00:46.170Z,98761.33
2019-04-03T13:05:51.716Z,98755.84
2019-04-03T13:10:57.190Z,98765.08
2019-04-03T13:16:02.773Z,98751.43
2019-04-03T13:21:09.232Z,98749.30
2019-04-03T13:26:14.405Z,98744.22
2019-04-03T13:31:19.887Z,98733.44
2019-04-03T13:36:25.179Z,98740.66
2019-04-03T13:41:33.288Z,98737.15
2019-04-03T13:46:37.526Z,98717.43
2019-04-03T13:51:42.649Z,98712.93
2019-04-03T13:56:47.883Z,98715.77
2019-04-03T14:01:53.050Z,98714.42
2019-04-03T14:06:58.501Z,98704.05
2019-04-03T14:12:05.211Z,98697.91
2019-04-03T14:17:13.639Z,98685.01
2019-04-03T14:22:18.143Z,98682.30
2019-04-03T14:27:28.466Z,98682.89
2019-04-03T14:32:31.177Z,98685.13
2019-04-03T14:37:36.428Z,98680.78
2019-04-03T14:42:41.561Z,98674.70
2019-04-03T14:47:46.733Z,98663.46
2019-04-03T14:52:52.517Z,98663.78
2019-04-03T14:57:57.768Z,98664.73
2019-04-03T15:03:04.736Z,98659.09
2019-04-03T15:08:09.697Z,98658.45
2019-04-03T15:13:16.935Z,98659.94
2019-04-03T15:18:45.607Z,98650.61
2019-04-03T15:23:48.964Z,98638.78
2019-04-03T15:28:54.694Z,98632.02
2019-04-03T15:34:00.476Z,98629.23
2019-04-03T15:39:12.552Z,98620.72
2019-04-03T15:44:20.045Z,98611.11
2019-04-03T15:49:26.604Z,98612.26
2019-04-03T15:54:33.030Z,98597.84
2019-04-03T15:59:38.730Z,98594.99
2019-04-03T16:04:44.116Z,98586.26
2019-04-03T16:09:51.283Z,98580.80
2019-04-03T16:14:57.449Z,98568.36
2019-04-03T16:20:03.068Z,98558.47
2019-04-03T16:25:09.747Z,98561.27
2019-04-03T16:30:24.316Z,98548.66
2019-04-03T16:35:31.149Z,98546.03
2019-04-03T16:40:39.021Z,98541.92
2019-04-03T16:45:44.597Z,98533.61
2019-04-03T16:50:50.009Z,98533.53
2019-04-03T16:55:57.985Z,98522.70
2019-04-03T17:01:03.154Z,98525.61
2019-04-03T17:06:08.235Z,98522.33
2019-04-03T17:11:14.818Z,98524.22
2019-04-03T17:16:20.027Z,98518.08
2019-04-03T17:21:25.643Z,98518.62
2019-04-03T17:26:32.061Z,98504.53
2019-04-03T17:31:42.290Z,98491.05
2019-04-03T17:36:47.331Z,98489.80
2019-04-03T17:41:56.573Z,98487.02
2019-04-03T17:47:01.702Z,98478.67
2019-04-03T17:52:06.933Z,98468.08
2019-04-03T17:57:13.703Z,98474.55
2019-04-03T18:02:24.601Z,98473.49
2019-04-03T18:07:30.889Z,98479.36
2019-04-03T18:12:35.965Z,98480.59
2019-04-03T18:17:41.011Z,98475.13
2019-04-03T18:22:46.023Z,98468.03
2019-04-03T18:27:51.129Z,98464.91
2019-04-03T18:32:58.048Z,98463.27
2019-04-03T18:38:03.300Z,98461.64
2019-04-03T18:43:08.451Z,98454.13
2019-04-03T18:48:16.247Z,98457.12
2019-04-03T18:53:21.109Z,98451.50
2019-04-03T18:58:26.247Z,98447.32
2019-04-03T19:03:31.519Z,98447.95
2019-04-03T19:08:36.654Z,98439.75
2019-04-03T19:13:44.497Z,98437.53
2019-04-03T19:18:49.229Z,98435.95
2019-04-03T19:23:54.467Z,98428.59
2019-04-03T19:28:59.549Z,98429.11
2019-04-03T19:34:05.709Z,98414.98
2019-04-03T19:39:11.014Z,98425.39
2019-04-03T19:44:18.069Z,98421.05
2019-04-03T19:49:23.405Z,98421.31
2019-04-03T19:54:28.509Z,98415.27
2019-04-03T19:59:35.097Z,98412.04
2019-04-03T20:04:40.559Z,98413.72
2019-04-03T20:09:45.589Z,98412.83
2019-04-03T20:14:57.957Z,98407.67
2019-04-03T20:19:58.858Z,98405.61
2019-04-03T20:25:03.849Z,98401.28
2019-04-03T20:30:09.268Z,98401.98
2019-04-03T20:35:14.351Z,98393.89
2019-04-03T20:40:19.538Z,98394.84
2019-04-03T20:45:26.385Z,98389.63
2019-04-03T20:50:31.432Z,98378.64
2019-04-03T20:55:36.553Z,98372.31
2019-04-03T21:00:41.797Z,98374.48
2019-04-03T21:05:48.857Z,98363.92
2019-04-03T21:10:54.055Z,98367.67
2019-04-03T21:15:59.199Z,98364.27
2019-04-03T21:21:04.347Z,98363.63
2019-04-03T21:26:09.385Z,98369.28
2019-04-03T21:31:14.448Z,98351.97
2019-04-03T21:36:19.560Z,98355.16
2019-04-03T21:41:24.671Z,98354.04
2019-04-03T21:46:29.704Z,98355.47
2019-04-03T21:51:35.053Z,98353.22
2019-04-03T21:56:40.075Z,98349.81
2019-04-03T22:01:46.153Z,98344.52
2019-04-03T22:06:51.261Z,98343.72
2019-04-03T22:11:56.364Z,98349.05
2019-04-03T22:17:01.391Z,98340.16
2019-04-03T22:22:06.469Z,98343.66
2019-04-03T22:27:12.522Z,98338.97
2019-04-03T22:32:17.675Z,98337.84
2019-04-03T22:37:22.867Z,98328.54
2019-04-03T22:42:28.222Z,98328.19
2019-04-03T22:47:33.228Z,98323.66
2019-04-03T22:52:39.922Z,98325.72
2019-04-03T22:57:45.320Z,98329.77
2019-04-03T23:02:50.426Z,98347.36
2019-04-03T23:07:55.405Z,98371.98
2019-04-03T23:13:00.738Z,98365.78
2019-04-03T23:18:05.764Z,98396.62
2019-04-03T23:23:10.873Z,98352.38
2019-04-03T23:28:15.864Z,98393.57
2019-04-03T23:33:21.054Z,98370.02
2019-04-03T23:38:26.726Z,98388.84
2019-04-03T23:43:32.225Z,98391.44
2019-04-03T23:48:37.232Z,98383.23
2019-04-03T23:53:42.275Z,98372.33
2019-04-03T23:58:47.328Z,98368.38
